Terminal Aerodrome Forecast
Issued by NWS Brownsville, TX

Home | Current Version | Previous Version | Text Only | Print | Product List | Glossary On
Versions: 1 2 3 4 5 6 7 8 9 10 11 12 13 14
492
FTUS44 KBRO 261123
TAFBRO
TAF
KBRO 261123Z 2612/2712 15007KT P6SM SKC
     FM261900 16025KT P6SM FEW050 SCT250
     FM270000 15019G25KT P6SM BKN250
     FM270100 15012G21KT P6SM FEW250
     FM270600 16012KT P6SM BKN250=

USA.gov is the U.S. government's official web portal to all federal, state and local government web resources and services.